FW1899 Weather Reports


Display with metric or nautical units.
time (UTC)temp
F
wind
direction
speed
MPH
gust
MPH
rain 1hr
in
rain 24hr
in
rain mn
in
humidity
%
barometer
mb
20220706010649 71 0 0.0 0.0 0.00 0.04 0.00 70 1013.0
20220706005948 72 0 0.0 0.0 0.00 0.04 0.00 70 1013.0
20220706005249 72 0 0.0 0.0 0.00 0.04 0.00 70 1013.2
20220706004549 72 0 0.0 0.0 0.00 0.04 0.00 71 1013.4
20220706003849 72 0 0.0 0.0 0.00 0.04 0.00 72 1013.3
20220706003149 71 0 0.0 0.0 0.00 0.04 0.00 74 1013.4
20220706002449 71 0 0.0 0.0 0.00 0.04 0.00 75 1013.5
20220706001749 70 0 0.0 0.0 0.00 0.04 0.00 76 1013.5
20220706001049 70 0 0.0 0.0 0.00 0.04 0.00 76 1013.3
20220706000349 71 0 0.0 0.0 0.00 0.04 0.00 76 1013.3
20220705235649 71 90 0.0 1.0 0.00 0.04 0.00 77 1013.4
20220705234949 71 90 0.0 1.0 0.00 0.04 0.00 78 1013.3
20220705234249 71 0 0.0 0.0 0.00 0.04 0.00 78 1013.7
20220705233549 71 0 0.0 0.0 0.00 0.04 0.00 78 1013.4
20220705232849 71 343 0.0 1.0 0.00 0.04 0.00 78 1013.4
20220705232149 71 105 1.0 2.0 0.00 0.04 0.00 78 1013.3
20220705231449 71 124 0.0 2.0 0.00 0.04 0.00 78 1013.3
20220705230749 71 0 0.0 0.0 0.00 0.04 0.00 77 1013.1
20220705230049 71 0 0.0 0.0 0.00 0.04 0.00 77 1012.9
20220705225349 71 90 1.0 2.0 0.00 0.04 0.00 76 1012.8
20220705224649 72 65 1.0 4.0 0.00 0.04 0.00 76 1012.5
20220705223949 72 60 3.0 6.0 0.00 0.04 0.00 76 1012.5
20220705223249 72 13 4.0 6.0 0.00 0.04 0.00 77 1012.3
20220705222550 71 172 3.0 5.0 0.00 0.04 0.00 80 1012.6
20220705221849 71 60 3.0 4.0 0.00 0.04 0.00 82 1012.5
20220705221150 71 69 1.0 4.0 0.00 0.04 0.00 81 1012.0
20220705220449 71 60 2.0 3.0 0.00 0.04 0.00 80 1011.9
20220705215749 71 62 2.0 3.0 0.00 0.04 0.04 80 1011.6
20220705215049 71 102 1.0 2.0 0.00 0.04 0.04 80 1011.5
20220705214350 72 52 2.0 3.0 0.01 0.04 0.04 80 1011.5
20220705213650 72 49 2.0 4.0 0.01 0.04 0.04 79 1011.8
20220705212950 72 90 2.0 4.0 0.01 0.04 0.04 80 1012.3
20220705212250 72 65 3.0 5.0 0.01 0.04 0.04 80 1013.1
20220705211550 72 74 3.0 5.0 0.02 0.04 0.04 80 1013.1
20220705210850 72 92 4.0 8.0 0.02 0.04 0.04 76 1014.0
20220705210150 73 142 6.0 12.0 0.02 0.04 0.04 76 1013.7
20220705205450 72 114 4.0 6.0 0.02 0.04 0.04 80 1014.5
20220705204751 72 70 3.0 5.0 0.01 0.02 0.02 77 1014.8
20220705204050 73 243 5.0 8.0 0.01 0.02 0.02 74 1014.5
20220705203350 73 196 5.0 7.0 0.01 0.02 0.02 76 1014.6
20220705202650 73 181 5.0 7.0 0.01 0.02 0.02 75 1015.6
20220705201950 74 154 3.0 6.0 0.00 0.01 0.02 73 1016.1
20220705201250 74 210 4.0 6.0 0.00 0.01 0.01 72 1016.3
20220705200550 74 195 6.0 8.0 0.00 0.01 0.01 70 1016.6
20220705195850 74 139 9.0 15.0 0.00 0.01 0.01 70 1016.6
20220705195151 74 155 6.0 10.0 0.00 0.01 0.01 66 1016.7
20220705194450 74 83 3.0 4.0 0.00 0.01 0.01 65 1015.8
20220705193750 74 47 2.0 3.0 0.00 0.01 0.01 66 1015.2
20220705193050 74 204 3.0 5.0 0.00 0.01 0.01 69 1014.7
20220705192350 73 194 3.0 6.0 0.00 0.01 0.01 72 1014.2
20220705191650 73 55 2.0 3.0 0.00 0.01 0.01 73 1012.6
20220705190950 73 106 2.0 2.0 0.00 0.01 0.01 73 1012.8
20220705190250 74 91 1.0 2.0 0.00 0.01 0.01 71 1012.9
20220705185550 74 76 1.0 2.0 0.00 0.01 0.01 71 1012.6
20220705184851 76 96 1.0 2.0 0.00 0.01 0.01 70 1012.7
20220705184150 78 112 2.0 4.0 0.00 0.01 0.01 64 1012.7
20220705183451 79 141 4.0 8.0 0.00 0.01 0.01 57 1012.7
20220705182750 79 173 4.0 8.0 0.00 0.01 0.01 55 1013.4
20220705182050 79 149 3.0 5.0 0.00 0.01 0.01 54 1012.4
20220705181350 80 34 4.0 5.0 0.00 0.01 0.01 54 1012.5
20220705180651 80 324 3.0 5.0 0.00 0.01 0.01 55 1012.8
20220705175950 80 10 3.0 4.0 0.00 0.01 0.01 55 1013.2
20220705175251 81 8 2.0 4.0 0.00 0.01 0.01 54 1013.0
20220705174550 82 349 2.0 4.0 0.00 0.01 0.01 50 1013.4
20220705173850 82 4 2.0 4.0 0.00 0.01 0.01 50 1013.3
20220705173150 82 24 1.0 2.0 0.00 0.01 0.01 50 1013.7
20220705172451 82 96 1.0 3.0 0.00 0.01 0.01 50 1013.5
20220705171751 83 281 2.0 7.0 0.00 0.01 0.01 50 1013.3
20220705171051 83 275 3.0 7.0 0.00 0.01 0.01 49 1013.1
20220705170351 85 309 2.0 3.0 0.00 0.01 0.01 48 1012.7
20220705165651 84 315 2.0 4.0 0.00 0.01 0.01 47 1012.4
20220705164951 85 63 2.0 4.0 0.00 0.01 0.01 46 1012.4
20220705164251 85 6 2.0 3.0 0.00 0.01 0.01 45 1012.3
20220705163552 87 155 2.0 4.0 0.00 0.01 0.01 43 1012.1
20220705162851 89 74 3.0 4.0 0.00 0.01 0.01 41 1012.3
20220705162151 90 342 4.0 6.0 0.00 0.01 0.01 40 1012.4
20220705161451 91 328 3.0 7.0 0.00 0.01 0.01 36 1012.5
20220705160751 92 45 3.0 7.0 0.00 0.01 0.01 35 1012.6
20220705160051 92 81 3.0 6.0 0.00 0.01 0.01 34 1012.6
20220705155351 93 280 3.0 7.0 0.00 0.01 0.01 34 1012.6
20220705154651 93 241 3.0 7.0 0.00 0.01 0.01 34 1012.6
20220705153952 92 275 4.0 5.0 0.00 0.01 0.01 34 1012.6
20220705153251 93 208 4.0 7.0 0.00 0.01 0.01 33 1012.6
20220705152552 94 159 3.0 4.0 0.00 0.01 0.01 33 1012.6
20220705151851 94 20 3.0 5.0 0.00 0.01 0.01 32 1012.6
20220705151152 94 302 3.0 5.0 0.00 0.01 0.01 32 1012.7
20220705150451 94 271 3.0 4.0 0.00 0.01 0.01 32 1012.8
20220705145752 94 157 3.0 5.0 0.00 0.01 0.01 32 1012.9
20220705145051 94 101 4.0 6.0 0.00 0.01 0.01 32 1013.0
20220705144351 94 204 4.0 6.0 0.00 0.01 0.01 32 1013.1
20220705143651 94 165 3.0 5.0 0.00 0.01 0.01 32 1013.1
20220705142951 94 70 3.0 5.0 0.00 0.01 0.01 32 1013.0
20220705142253 94 222 4.0 6.0 0.00 0.01 0.01 32 1013.2
20220705141553 94 227 4.0 6.0 0.00 0.01 0.01 32 1013.2
20220705140852 95 47 4.0 4.0 0.00 0.01 0.01 32 1013.2
20220705140152 94 38 4.0 4.0 0.00 0.01 0.01 32 1013.1
20220705135452 94 37 3.0 6.0 0.00 0.01 0.01 32 1013.2
20220705134752 95 71 3.0 7.0 0.00 0.01 0.01 32 1013.1
20220705134052 94 150 3.0 7.0 0.00 0.01 0.01 32 1012.9
20220705133352 94 241 3.0 4.0 0.00 0.01 0.01 32 1013.1
20220705132652 94 229 4.0 6.0 0.00 0.01 0.01 32 1013.2
20220705131952 94 171 4.0 4.0 0.00 0.01 0.01 32 1013.1
20220705131252 94 141 3.0 5.0 0.00 0.01 0.01 32 1013.2
20220705130552 93 151 3.0 5.0 0.00 0.01 0.01 32 1013.0
20220705125853 93 209 4.0 7.0 0.00 0.01 0.01 33 1013.1
20220705125152 93 214 3.0 5.0 0.00 0.01 0.01 33 1013.2
20220705124452 93 71 3.0 8.0 0.00 0.01 0.01 33 1013.2
20220705123752 93 65 4.0 8.0 0.00 0.01 0.01 34 1013.0
20220705123052 92 62 3.0 5.0 0.00 0.01 0.01 34 1013.1
20220705122352 92 185 3.0 4.0 0.00 0.01 0.01 34 1013.2
20220705121652 92 133 3.0 7.0 0.00 0.01 0.01 33 1013.1
20220705120953 92 281 3.0 4.0 0.00 0.01 0.01 34 1013.0
20220705120252 92 359 3.0 4.0 0.00 0.01 0.01 34 1013.0
20220705115552 92 318 3.0 4.0 0.00 0.01 0.01 34 1012.8
20220705114852 92 301 3.0 7.0 0.00 0.01 0.01 34 1013.0
20220705114152 91 240 5.0 8.0 0.00 0.01 0.01 35 1012.8
20220705113452 92 249 3.0 8.0 0.00 0.01 0.01 34 1012.8
20220705112753 92 172 3.0 4.0 0.00 0.01 0.01 35 1012.9
20220705112053 92 179 3.0 4.0 0.00 0.01 0.01 34 1012.9
20220705111352 92 96 2.0 4.0 0.00 0.01 0.01 35 1012.8
20220705110652 92 87 2.0 4.0 0.00 0.01 0.01 36 1012.8
20220705105952 91 345 3.0 5.0 0.00 0.01 0.01 36 1012.8
20220705105252 92 359 3.0 5.0 0.00 0.01 0.01 35 1012.8
20220705104552 91 292 2.0 4.0 0.00 0.01 0.01 37 1012.9
20220705103854 90 103 3.0 6.0 0.00 0.01 0.01 40 1012.9
20220705103152 90 173 4.0 6.0 0.00 0.01 0.01 41 1012.9
20220705102453 90 208 3.0 5.0 0.00 0.01 0.01 41 1012.8
20220705101752 90 16 3.0 5.0 0.00 0.01 0.01 40 1012.9
20220705101052 91 291 3.0 4.0 0.00 0.01 0.01 35 1012.8
20220705100353 90 317 3.0 3.0 0.00 0.01 0.01 40 1012.8
20220705095653 90 295 3.0 4.0 0.00 0.01 0.01 40 1012.8
20220705094953 89 110 3.0 6.0 0.00 0.01 0.01 41 1012.7
20220705094253 89 149 3.0 6.0 0.00 0.01 0.01 41 1012.7
20220705093555 89 188 2.0 4.0 0.00 0.01 0.01 40 1012.6
20220705092853 89 122 2.0 4.0 0.00 0.01 0.01 41 1012.7
20220705092153 89 29 3.0 4.0 0.00 0.01 0.01 41 1012.7
20220705091454 89 37 3.0 4.0 0.00 0.01 0.01 41 1012.7
20220705090754 88 359 4.0 6.0 0.00 0.01 0.01 41 1012.8
20220705090055 88 343 3.0 5.0 0.00 0.01 0.01 41 1012.7
20220705085353 89 17 2.0 3.0 0.00 0.01 0.01 41 1012.6
20220705084653 88 337 4.0 6.0 0.00 0.01 0.01 42 1012.6
20220705083954 88 2 3.0 6.0 0.00 0.01 0.01 40 1012.6
20220705083253 88 61 2.0 4.0 0.00 0.01 0.01 41 1012.6
20220705082558 87 85 1.0 2.0 0.00 0.01 0.01 42 1012.6
20220705081854 88 112 1.0 2.0 0.00 0.01 0.01 42 1012.6
20220705081153 88 132 1.0 2.0 0.00 0.01 0.01 42 1012.7
20220705080453 87 97 0.0 2.0 0.00 0.01 0.01 47 1012.8
20220705075753 86 95 1.0 2.0 0.00 0.01 0.01 46 1013.0
20220705075053 86 109 1.0 2.0 0.00 0.01 0.01 47 1012.9
20220705074353 85 92 1.0 2.0 0.00 0.01 0.01 49 1013.0
20220705073653 84 75 1.0 2.0 0.00 0.01 0.01 50 1013.0
20220705072954 83 72 1.0 2.0 0.00 0.01 0.01 51 1012.9
20220705072253 82 90 0.0 2.0 0.00 0.01 0.01 54 1013.0
20220705071553 80 90 1.0 2.0 0.00 0.01 0.01 62 1013.1
20220705070854 78 88 1.0 2.0 0.00 0.01 0.01 63 1012.9
20220705070153 77 60 1.0 2.0 0.00 0.01 0.01 61 1012.8
20220705065453 76 60 1.0 2.0 0.00 0.01 0.01 61 1012.7
20220705064753 78 90 1.0 2.0 0.00 0.01 0.01 64 1013.0
20220705064053 78 90 0.0 1.0 0.00 0.01 0.01 64 1013.1
20220705063353 78 90 0.0 1.0 0.01 0.01 0.01 63 1013.1
20220705062653 77 90 0.0 2.0 0.01 0.01 0.01 64 1012.9
20220705061954 75 0 0.0 0.0 0.01 0.01 0.01 67 1012.8
20220705061254 72 0 0.0 0.0 0.01 0.01 0.01 71 1012.9
20220705060554 71 0 0.0 0.0 0.01 0.01 0.01 73 1013.1
20220705055854 71 90 0.0 1.0 0.01 0.01 0.01 73 1013.1
20220705055154 70 71 1.0 3.0 0.01 0.01 0.01 73 1013.3
20220705054454 70 67 2.0 4.0 0.01 0.01 0.01 73 1013.2
20220705053754 70 88 2.0 3.0 0.01 0.01 0.01 74 1013.3
20220705053054 71 68 2.0 4.0 0.00 0.00 0.00 72 1013.3
20220705052354 73 0 0.0 0.0 0.00 0.00 0.00 63 1013.4
20220705051654 73 0 0.0 0.0 0.00 0.00 0.00 60 1013.5
20220705050954 73 0 0.0 0.0 0.00 0.00 0.00 60 1013.4
20220705050254 72 0 0.0 0.0 0.00 0.00 0.00 63 1013.1
20220705045554 72 0 0.0 0.0 0.00 0.00 0.00 62 1013.2
20220705044854 72 0 0.0 0.0 0.00 0.00 0.00 63 1013.1
20220705044154 72 0 0.0 0.0 0.00 0.00 0.00 63 1013.2
20220705043454 72 0 0.0 0.0 0.00 0.00 0.00 62 1012.9
20220705042755 71 0 0.0 0.0 0.00 0.00 0.00 62 1013.0
20220705042054 72 0 0.0 0.0 0.00 0.00 0.00 63 1012.8
20220705041354 72 0 0.0 0.0 0.00 0.00 0.00 62 1012.7
20220705040654 72 0 0.0 0.0 0.00 0.00 0.00 63 1012.6
20220705035954 72 0 0.0 0.0 0.00 0.00 0.00 63 1012.5
20220705035254 72 0 0.0 0.0 0.00 0.00 0.00 63 1012.6
20220705034554 72 0 0.0 0.0 0.00 0.00 0.00 62 1012.6
20220705033854 72 0 0.0 0.0 0.00 0.00 0.00 60 1012.5
20220705033154 72 0 0.0 0.0 0.00 0.00 0.00 64 1012.5
20220705032454 72 0 0.0 0.0 0.00 0.00 0.00 65 1012.3
20220705031754 72 0 0.0 0.0 0.00 0.00 0.00 66 1012.2
20220705031055 72 0 0.0 0.0 0.00 0.00 0.00 66 1012.2
20220705030355 72 0 0.0 0.0 0.00 0.00 0.00 65 1012.2
20220705025655 72 0 0.0 0.0 0.00 0.00 0.00 65 1012.4
20220705024954 72 0 0.0 0.0 0.00 0.00 0.00 65 1012.5
20220705024255 72 0 0.0 0.0 0.00 0.00 0.00 65 1012.5
20220705023555 72 0 0.0 0.0 0.00 0.00 0.00 66 1012.4
20220705022855 72 0 0.0 0.0 0.00 0.00 0.00 66 1012.4
20220705022155 72 0 0.0 0.0 0.00 0.00 0.00 66 1012.5
20220705021455 72 0 0.0 0.0 0.00 0.00 0.00 67 1012.5
20220705020755 72 0 0.0 0.0 0.00 0.00 0.00 66 1012.5
20220705020055 72 0 0.0 0.0 0.00 0.00 0.00 66 1012.4
20220705015355 72 0 0.0 0.0 0.00 0.00 0.00 66 1012.3
20220705014655 72 0 0.0 0.0 0.00 0.00 0.00 66 1012.2
20220705013955 72 0 0.0 0.0 0.00 0.00 0.00 66 1012.4
20220705013255 72 0 0.0 0.0 0.00 0.00 0.00 66 1012.3
20220705012555 72 0 0.0 0.0 0.00 0.00 0.00 66 1012.2
20220705011855 72 0 0.0 0.0 0.00 0.00 0.00 66 1012.2
20220705011155 72 0 0.0 0.0 0.00 0.00 0.00 66 1012.2